JBU2601 KHPN-TJSJ
Flight info
| Callsign | JBU2601 |
|---|---|
| Flight time | 3h 20m |
| Altitude | 36000 |
| Route | JFK DCT SHIPP Y489 BEHHR/M078F360 Y489 RESQU/M078F370 DCT SKPPR L455 KINCH/N0454F370 L455 LENNT DCT PLING RTE7 SAALR |
| Aircraft | A320/M-SDE3FGHIRWY/LB1 |
Departure
| Time | 2026-04-23 16:51 |
|---|---|
| Airport | Westchester County Airport (KHPN) |
Arrival
| Time | 2026-04-23 20:11 |
|---|---|
| Airport | Luis Munoz Marin International Airport (TJSJ) |
| Time | Latitude | Longitude | Altitude | Speed | Heading |
|---|---|---|---|---|---|
| 2026-04-23 15:39 | 41.06839 | -73.70494 | 408 ft | 0 kts | 62° |
| 2026-04-23 16:38 | 41.06834 | -73.70506 | 407 ft | 2 kts | 62° |
| 2026-04-23 16:38 | 41.06828 | -73.70525 | 407 ft | 2 kts | 74° |
| 2026-04-23 16:38 | 41.06825 | -73.70544 | 406 ft | 2 kts | 83° |
| 2026-04-23 16:39 | 41.06824 | -73.70564 | 405 ft | 2 kts | 92° |
| 2026-04-23 16:39 | 41.06825 | -73.70581 | 405 ft | 1 kts | 100° |
| 2026-04-23 16:39 | 41.06825 | -73.70582 | 405 ft | 0 kts | 100° |
| 2026-04-23 16:43 | 41.06823 | -73.70575 | 405 ft | 3 kts | 117° |
| 2026-04-23 16:43 | 41.06795 | -73.70544 | 404 ft | 7 kts | 148° |
| 2026-04-23 16:43 | 41.06730 | -73.70493 | 401 ft | 13 kts | 144° |
| 2026-04-23 16:44 | 41.06642 | -73.70417 | 397 ft | 16 kts | 149° |
| 2026-04-23 16:44 | 41.06535 | -73.70335 | 392 ft | 19 kts | 149° |
| 2026-04-23 16:44 | 41.06414 | -73.70242 | 388 ft | 20 kts | 148° |
| 2026-04-23 16:44 | 41.06296 | -73.70152 | 384 ft | 17 kts | 151° |
| 2026-04-23 16:45 | 41.06195 | -73.70075 | 380 ft | 17 kts | 150° |
| 2026-04-23 16:45 | 41.06094 | -73.70024 | 376 ft | 16 kts | 188° |
| 2026-04-23 16:45 | 41.06060 | -73.70045 | 375 ft | 0 kts | 222° |
| 2026-04-23 16:49 | 41.06039 | -73.70076 | 375 ft | 12 kts | 236° |
| 2026-04-23 16:49 | 41.06022 | -73.70152 | 376 ft | 7 kts | 304° |
| 2026-04-23 16:50 | 41.06034 | -73.70164 | 376 ft | 0 kts | 327° |
| 2026-04-23 16:50 | 41.06170 | -73.70270 | 382 ft | 57 kts | 330° |
| 2026-04-23 16:50 | 41.06713 | -73.70687 | 402 ft | 118 kts | 329° |
| 2026-04-23 16:50 | 41.07554 | -73.71339 | 539 ft | 153 kts | 330° |
| 2026-04-23 16:51 | 41.08477 | -73.72025 | 1107 ft | 154 kts | 328° |
| 2026-04-23 16:51 | 41.09173 | -73.73045 | 1738 ft | 154 kts | 289° |
| 2026-04-23 16:51 | 41.09161 | -73.74454 | 2286 ft | 165 kts | 257° |
| 2026-04-23 16:51 | 41.08435 | -73.75768 | 2626 ft | 195 kts | 218° |
| 2026-04-23 16:52 | 41.07053 | -73.76189 | 2956 ft | 222 kts | 172° |
| 2026-04-23 16:52 | 41.05638 | -73.75197 | 3239 ft | 245 kts | 128° |
| 2026-04-23 16:52 | 41.04849 | -73.73191 | 3667 ft | 257 kts | 104° |
| 2026-04-23 16:52 | 41.04162 | -73.70919 | 4130 ft | 278 kts | 121° |
| 2026-04-23 16:53 | 41.02748 | -73.69089 | 4704 ft | 293 kts | 150° |
| 2026-04-23 16:53 | 41.00854 | -73.68252 | 5465 ft | 294 kts | 178° |
| 2026-04-23 16:53 | 40.98855 | -73.68561 | 6231 ft | 289 kts | 206° |
| 2026-04-23 16:53 | 40.97167 | -73.69906 | 7001 ft | 283 kts | 225° |
| 2026-04-23 16:54 | 40.95556 | -73.71418 | 7755 ft | 293 kts | 216° |
| 2026-04-23 16:54 | 40.93690 | -73.72559 | 8542 ft | 303 kts | 207° |
| 2026-04-23 16:54 | 40.91639 | -73.73352 | 9296 ft | 312 kts | 200° |
| 2026-04-23 16:54 | 40.89502 | -73.73888 | 10021 ft | 319 kts | 196° |
| 2026-04-23 16:55 | 40.87275 | -73.74286 | 10609 ft | 330 kts | 194° |
| 2026-04-23 16:55 | 40.84917 | -73.74628 | 10954 ft | 348 kts | 193° |
| 2026-04-23 16:55 | 40.82467 | -73.74937 | 11257 ft | 366 kts | 192° |
| 2026-04-23 16:55 | 40.79859 | -73.75243 | 11619 ft | 380 kts | 191° |
| 2026-04-23 16:56 | 40.77239 | -73.75541 | 12238 ft | 386 kts | 191° |
| 2026-04-23 16:56 | 40.74548 | -73.75843 | 12942 ft | 388 kts | 191° |
| 2026-04-23 16:56 | 40.71876 | -73.76148 | 13630 ft | 390 kts | 191° |
| 2026-04-23 16:56 | 40.69137 | -73.76464 | 14277 ft | 394 kts | 191° |
| 2026-04-23 16:57 | 40.66416 | -73.76733 | 14872 ft | 401 kts | 186° |
| 2026-04-23 16:57 | 40.63610 | -73.76105 | 15440 ft | 419 kts | 161° |
| 2026-04-23 16:57 | 40.61134 | -73.74080 | 16025 ft | 428 kts | 136° |
| 2026-04-23 16:57 | 40.59205 | -73.71081 | 16658 ft | 430 kts | 124° |
| 2026-04-23 16:58 | 40.57502 | -73.67844 | 17196 ft | 434 kts | 122° |
| 2026-04-23 16:58 | 40.55808 | -73.64571 | 17730 ft | 439 kts | 123° |
| 2026-04-23 16:58 | 40.54032 | -73.61264 | 18264 ft | 443 kts | 123° |
| 2026-04-23 16:58 | 40.52221 | -73.58003 | 18763 ft | 447 kts | 124° |
| 2026-04-23 16:59 | 40.50363 | -73.54733 | 19326 ft | 451 kts | 125° |
| 2026-04-23 16:59 | 40.48476 | -73.51457 | 19804 ft | 455 kts | 126° |
| 2026-04-23 16:59 | 40.46535 | -73.48107 | 20309 ft | 459 kts | 126° |
| 2026-04-23 16:59 | 40.44614 | -73.44795 | 20845 ft | 463 kts | 125° |
| 2026-04-23 17:00 | 40.42655 | -73.41421 | 21330 ft | 466 kts | 126° |
| 2026-04-23 17:00 | 40.40689 | -73.38036 | 21800 ft | 470 kts | 126° |
| 2026-04-23 17:00 | 40.38694 | -73.34609 | 22260 ft | 474 kts | 126° |
| 2026-04-23 17:00 | 40.36696 | -73.31180 | 22732 ft | 477 kts | 126° |
| 2026-04-23 17:01 | 40.34669 | -73.27702 | 23172 ft | 481 kts | 126° |
| 2026-04-23 17:01 | 40.32689 | -73.24202 | 23603 ft | 484 kts | 123° |
| 2026-04-23 17:01 | 40.30809 | -73.20534 | 24045 ft | 486 kts | 121° |
| 2026-04-23 17:01 | 40.28993 | -73.16867 | 24469 ft | 489 kts | 120° |
| 2026-04-23 17:02 | 40.27142 | -73.13113 | 24886 ft | 492 kts | 120° |
| 2026-04-23 17:02 | 40.25269 | -73.09346 | 25300 ft | 495 kts | 120° |
| 2026-04-23 17:02 | 40.23391 | -73.05572 | 25708 ft | 497 kts | 120° |
| 2026-04-23 17:02 | 40.21493 | -73.01781 | 26109 ft | 500 kts | 120° |
| 2026-04-23 17:03 | 40.19605 | -72.98010 | 26471 ft | 504 kts | 120° |
| 2026-04-23 17:03 | 40.17668 | -72.94152 | 26871 ft | 506 kts | 119° |
| 2026-04-23 17:03 | 40.15754 | -72.90340 | 27276 ft | 508 kts | 119° |
| 2026-04-23 17:03 | 40.13829 | -72.86503 | 27787 ft | 507 kts | 119° |
| 2026-04-23 17:04 | 40.11901 | -72.82671 | 28277 ft | 506 kts | 119° |
| 2026-04-23 17:04 | 40.10007 | -72.78838 | 28736 ft | 504 kts | 117° |
| 2026-04-23 17:04 | 40.08196 | -72.74889 | 29165 ft | 503 kts | 116° |
| 2026-04-23 17:04 | 40.06436 | -72.70984 | 29543 ft | 504 kts | 115° |
| 2026-04-23 17:05 | 40.04655 | -72.67029 | 29960 ft | 504 kts | 115° |
| 2026-04-23 17:05 | 40.02887 | -72.63104 | 30381 ft | 502 kts | 115° |
| 2026-04-23 17:05 | 40.01185 | -72.59338 | 30773 ft | 501 kts | 115° |
| 2026-04-23 17:05 | 39.99404 | -72.55411 | 31150 ft | 501 kts | 115° |
| 2026-04-23 17:06 | 39.97637 | -72.51527 | 31477 ft | 501 kts | 115° |
| 2026-04-23 17:06 | 39.95878 | -72.47637 | 31862 ft | 499 kts | 114° |
| 2026-04-23 17:06 | 39.94136 | -72.43689 | 32235 ft | 498 kts | 113° |
| 2026-04-23 17:06 | 39.92439 | -72.39813 | 32578 ft | 497 kts | 112° |
| 2026-04-23 17:07 | 39.90741 | -72.35928 | 32915 ft | 496 kts | 112° |
| 2026-04-23 17:07 | 39.89027 | -72.32018 | 33183 ft | 497 kts | 113° |
| 2026-04-23 17:07 | 39.87316 | -72.28129 | 33419 ft | 497 kts | 112° |
| 2026-04-23 17:07 | 39.85607 | -72.24261 | 33692 ft | 496 kts | 112° |
| 2026-04-23 17:08 | 39.83886 | -72.20373 | 33959 ft | 495 kts | 112° |
| 2026-04-23 17:08 | 39.82188 | -72.16534 | 34170 ft | 495 kts | 112° |
| 2026-04-23 17:08 | 39.80456 | -72.12624 | 34342 ft | 497 kts | 112° |
| 2026-04-23 17:08 | 39.78748 | -72.08780 | 34529 ft | 498 kts | 112° |
| 2026-04-23 17:09 | 39.76956 | -72.04883 | 34686 ft | 501 kts | 115° |
| 2026-04-23 17:09 | 39.75001 | -72.01177 | 34836 ft | 506 kts | 121° |
| 2026-04-23 17:09 | 39.72792 | -71.97564 | 34995 ft | 510 kts | 126° |
| 2026-04-23 17:09 | 39.70399 | -71.94205 | 35158 ft | 513 kts | 131° |
| 2026-04-23 17:10 | 39.67799 | -71.91012 | 35302 ft | 515 kts | 134° |
| 2026-04-23 17:10 | 39.65169 | -71.87927 | 35483 ft | 515 kts | 134° |
| 2026-04-23 17:10 | 39.62513 | -71.84820 | 35652 ft | 514 kts | 134° |
| 2026-04-23 17:10 | 39.59866 | -71.81688 | 35822 ft | 514 kts | 134° |
| 2026-04-23 17:11 | 39.57254 | -71.78563 | 35959 ft | 514 kts | 134° |
| 2026-04-23 17:11 | 39.54516 | -71.75545 | 35971 ft | 517 kts | 140° |
| 2026-04-23 17:11 | 39.48560 | -71.70444 | 35975 ft | 519 kts | 151° |
| 2026-04-23 17:12 | 39.41943 | -71.66668 | 35981 ft | 517 kts | 162° |
| 2026-04-23 17:12 | 39.35144 | -71.63732 | 35979 ft | 516 kts | 163° |
| 2026-04-23 17:13 | 39.28406 | -71.60777 | 35979 ft | 516 kts | 162° |
| 2026-04-23 17:13 | 39.21572 | -71.58082 | 35989 ft | 513 kts | 169° |
| 2026-04-23 17:14 | 39.14566 | -71.56590 | 35993 ft | 507 kts | 179° |
| 2026-04-23 17:14 | 39.07557 | -71.56126 | 35994 ft | 505 kts | 182° |
| 2026-04-23 17:15 | 39.00532 | -71.55767 | 35994 ft | 505 kts | 182° |
| 2026-04-23 17:15 | 38.93544 | -71.55362 | 35994 ft | 503 kts | 181° |
| 2026-04-23 17:16 | 38.86582 | -71.54940 | 35991 ft | 503 kts | 181° |
| 2026-04-23 17:16 | 38.79635 | -71.54518 | 35992 ft | 501 kts | 181° |
| 2026-04-23 17:17 | 38.72630 | -71.54092 | 35992 ft | 501 kts | 181° |
| 2026-04-23 17:17 | 38.65695 | -71.53677 | 35992 ft | 500 kts | 181° |
| 2026-04-23 17:18 | 38.55335 | -71.53052 | 35991 ft | 498 kts | 181° |
| 2026-04-23 17:19 | 38.48413 | -71.52532 | 35990 ft | 498 kts | 180° |
| 2026-04-23 17:19 | 38.41501 | -71.51969 | 35989 ft | 497 kts | 180° |
| 2026-04-23 17:20 | 38.34647 | -71.51425 | 35992 ft | 496 kts | 180° |
| 2026-04-23 17:21 | 38.20894 | -71.50347 | 36000 ft | 492 kts | 181° |
| 2026-04-23 17:21 | 38.10645 | -71.49550 | 35996 ft | 493 kts | 180° |
| 2026-04-23 17:22 | 38.00419 | -71.48753 | 36053 ft | 490 kts | 181° |
| 2026-04-23 17:23 | 37.90243 | -71.47968 | 36011 ft | 490 kts | 181° |
| 2026-04-23 17:24 | 37.80071 | -71.47179 | 36011 ft | 489 kts | 181° |
| 2026-04-23 17:24 | 37.69919 | -71.46399 | 36010 ft | 487 kts | 181° |
| 2026-04-23 17:25 | 37.59783 | -71.45624 | 36002 ft | 486 kts | 181° |
| 2026-04-23 17:26 | 37.53001 | -71.44908 | 35798 ft | 490 kts | 175° |
| 2026-04-23 17:26 | 37.46327 | -71.43103 | 35929 ft | 494 kts | 166° |
| 2026-04-23 17:27 | 37.36805 | -71.38232 | 36007 ft | 497 kts | 155° |
| 2026-04-23 17:27 | 37.30587 | -71.34474 | 36007 ft | 495 kts | 156° |
| 2026-04-23 17:28 | 37.24381 | -71.30765 | 36000 ft | 495 kts | 156° |
| 2026-04-23 17:28 | 37.18159 | -71.27087 | 36003 ft | 495 kts | 157° |
| 2026-04-23 17:29 | 37.11932 | -71.23417 | 36002 ft | 495 kts | 157° |
| 2026-04-23 17:30 | 37.02601 | -71.17930 | 36001 ft | 494 kts | 157° |
| 2026-04-23 17:30 | 36.93275 | -71.12463 | 35998 ft | 494 kts | 157° |
| 2026-04-23 17:31 | 36.87069 | -71.08830 | 35992 ft | 493 kts | 157° |
| 2026-04-23 17:31 | 36.80896 | -71.05225 | 35997 ft | 493 kts | 157° |
| 2026-04-23 17:32 | 36.74700 | -71.01614 | 36002 ft | 493 kts | 157° |
| 2026-04-23 17:32 | 36.68502 | -70.98006 | 35994 ft | 492 kts | 157° |
| 2026-04-23 17:33 | 36.62304 | -70.94409 | 35991 ft | 492 kts | 157° |
| 2026-04-23 17:33 | 36.56106 | -70.90816 | 35989 ft | 492 kts | 157° |
| 2026-04-23 17:34 | 36.49904 | -70.87223 | 35991 ft | 491 kts | 157° |
| 2026-04-23 17:35 | 36.40656 | -70.81886 | 35989 ft | 490 kts | 157° |
| 2026-04-23 17:35 | 36.31391 | -70.76549 | 35991 ft | 489 kts | 157° |
| 2026-04-23 17:36 | 36.25240 | -70.73013 | 35988 ft | 489 kts | 157° |
| 2026-04-23 17:36 | 36.19062 | -70.69469 | 35990 ft | 488 kts | 157° |
| 2026-04-23 17:37 | 36.12941 | -70.65959 | 35990 ft | 488 kts | 157° |
| 2026-04-23 17:38 | 36.03726 | -70.60696 | 35991 ft | 487 kts | 157° |
| 2026-04-23 17:38 | 35.97588 | -70.57197 | 35986 ft | 486 kts | 157° |
| 2026-04-23 17:39 | 35.91445 | -70.53700 | 35980 ft | 486 kts | 157° |
| 2026-04-23 17:39 | 35.85313 | -70.50213 | 35994 ft | 486 kts | 157° |
| 2026-04-23 17:40 | 35.79179 | -70.46783 | 35984 ft | 485 kts | 160° |
| 2026-04-23 17:40 | 35.72841 | -70.44085 | 35992 ft | 481 kts | 168° |
| 2026-04-23 17:41 | 35.66312 | -70.42262 | 35994 ft | 479 kts | 171° |
| 2026-04-23 17:41 | 35.56567 | -70.39716 | 36255 ft | 478 kts | 171° |
| 2026-04-23 17:42 | 35.50090 | -70.38005 | 36025 ft | 477 kts | 171° |
| 2026-04-23 17:42 | 35.46835 | -70.37143 | 36006 ft | 477 kts | 171° |
| 2026-04-23 17:43 | 35.40375 | -70.35435 | 35993 ft | 477 kts | 171° |
| 2026-04-23 17:43 | 35.33864 | -70.33714 | 35991 ft | 477 kts | 172° |
| 2026-04-23 17:44 | 35.27416 | -70.32011 | 35995 ft | 476 kts | 172° |
| 2026-04-23 17:44 | 35.17703 | -70.29451 | 35993 ft | 475 kts | 172° |
| 2026-04-23 17:45 | 35.08025 | -70.26910 | 35992 ft | 475 kts | 172° |
| 2026-04-23 17:46 | 34.98382 | -70.24381 | 35995 ft | 473 kts | 172° |
| 2026-04-23 17:46 | 34.91949 | -70.22698 | 35992 ft | 473 kts | 171° |
| 2026-04-23 17:47 | 34.85542 | -70.21023 | 35993 ft | 473 kts | 172° |
| 2026-04-23 17:48 | 34.75894 | -70.18508 | 35999 ft | 473 kts | 172° |
| 2026-04-23 17:48 | 34.69475 | -70.16837 | 36012 ft | 471 kts | 172° |
| 2026-04-23 17:49 | 34.63068 | -70.15173 | 36018 ft | 471 kts | 172° |
| 2026-04-23 17:49 | 34.56673 | -70.13515 | 36022 ft | 470 kts | 172° |
| 2026-04-23 17:50 | 34.50270 | -70.11858 | 36023 ft | 470 kts | 172° |
| 2026-04-23 17:50 | 34.40727 | -70.09392 | 36048 ft | 468 kts | 172° |
| 2026-04-23 17:51 | 34.34363 | -70.07750 | 36040 ft | 468 kts | 172° |
| 2026-04-23 17:52 | 34.24813 | -70.05291 | 36055 ft | 467 kts | 172° |
| 2026-04-23 17:52 | 34.15247 | -70.02836 | 36043 ft | 468 kts | 172° |
| 2026-04-23 17:53 | 34.05761 | -70.00402 | 36064 ft | 466 kts | 172° |
| 2026-04-23 17:54 | 33.99393 | -69.98774 | 36065 ft | 465 kts | 172° |
| 2026-04-23 17:54 | 33.89941 | -69.96363 | 36065 ft | 465 kts | 172° |
| 2026-04-23 17:55 | 33.80439 | -69.93945 | 36065 ft | 465 kts | 172° |
| 2026-04-23 17:56 | 33.74133 | -69.92340 | 36066 ft | 464 kts | 172° |
| 2026-04-23 17:56 | 33.64664 | -69.89938 | 36070 ft | 465 kts | 172° |
| 2026-04-23 17:57 | 33.58347 | -69.88338 | 36077 ft | 465 kts | 172° |
| 2026-04-23 17:58 | 33.48840 | -69.85934 | 36079 ft | 465 kts | 172° |
| 2026-04-23 17:58 | 33.42516 | -69.84338 | 36087 ft | 464 kts | 172° |
| 2026-04-23 17:59 | 33.36187 | -69.82745 | 36089 ft | 464 kts | 172° |
| 2026-04-23 17:59 | 33.29906 | -69.81166 | 36092 ft | 464 kts | 172° |
| 2026-04-23 18:00 | 33.23568 | -69.79574 | 36097 ft | 464 kts | 172° |
| 2026-04-23 18:00 | 33.17250 | -69.77989 | 36101 ft | 464 kts | 172° |
| 2026-04-23 18:01 | 33.10936 | -69.76408 | 36104 ft | 464 kts | 172° |
| 2026-04-23 18:01 | 33.04636 | -69.74831 | 36108 ft | 463 kts | 172° |
| 2026-04-23 18:02 | 32.98330 | -69.73258 | 36113 ft | 464 kts | 172° |
| 2026-04-23 18:02 | 32.92006 | -69.71681 | 36112 ft | 464 kts | 172° |
| 2026-04-23 18:03 | 32.85710 | -69.70113 | 36117 ft | 463 kts | 172° |
| 2026-04-23 18:03 | 32.79388 | -69.68541 | 36117 ft | 462 kts | 172° |
| 2026-04-23 18:04 | 32.73112 | -69.66982 | 36121 ft | 462 kts | 172° |
| 2026-04-23 18:04 | 32.66835 | -69.65428 | 36121 ft | 461 kts | 172° |
| 2026-04-23 18:05 | 32.60561 | -69.63876 | 36128 ft | 462 kts | 172° |
| 2026-04-23 18:05 | 32.54242 | -69.62314 | 36126 ft | 461 kts | 172° |
| 2026-04-23 18:06 | 32.47972 | -69.60766 | 36131 ft | 461 kts | 172° |
| 2026-04-23 18:06 | 32.41720 | -69.59226 | 36130 ft | 461 kts | 172° |
| 2026-04-23 18:07 | 32.35460 | -69.57685 | 36133 ft | 460 kts | 172° |
| 2026-04-23 18:07 | 32.29171 | -69.56140 | 36131 ft | 460 kts | 172° |
| 2026-04-23 18:08 | 32.22906 | -69.54602 | 36131 ft | 460 kts | 172° |
| 2026-04-23 18:08 | 32.16650 | -69.53071 | 36125 ft | 461 kts | 172° |
| 2026-04-23 18:09 | 32.10373 | -69.51534 | 36122 ft | 460 kts | 172° |
| 2026-04-23 18:09 | 32.04122 | -69.50008 | 36116 ft | 460 kts | 172° |
| 2026-04-23 18:10 | 31.97839 | -69.48473 | 36121 ft | 460 kts | 172° |
| 2026-04-23 18:10 | 31.91562 | -69.46943 | 36118 ft | 460 kts | 172° |
| 2026-04-23 18:11 | 31.85306 | -69.45419 | 36122 ft | 459 kts | 172° |
| 2026-04-23 18:11 | 31.79046 | -69.43897 | 36121 ft | 459 kts | 172° |
| 2026-04-23 18:12 | 31.72826 | -69.42388 | 36130 ft | 459 kts | 172° |
| 2026-04-23 18:12 | 31.66584 | -69.40876 | 36118 ft | 459 kts | 172° |
| 2026-04-23 18:13 | 31.60323 | -69.39361 | 36128 ft | 458 kts | 172° |
| 2026-04-23 18:13 | 31.54068 | -69.37849 | 36127 ft | 458 kts | 172° |
| 2026-04-23 18:14 | 31.47851 | -69.36350 | 36126 ft | 458 kts | 172° |
| 2026-04-23 18:14 | 31.41615 | -69.34847 | 36123 ft | 458 kts | 172° |
| 2026-04-23 18:15 | 31.35365 | -69.33343 | 36130 ft | 458 kts | 172° |
| 2026-04-23 18:15 | 31.29124 | -69.31841 | 36128 ft | 457 kts | 172° |
| 2026-04-23 18:16 | 31.22909 | -69.30350 | 36128 ft | 457 kts | 172° |
| 2026-04-23 18:16 | 31.16683 | -69.28857 | 36129 ft | 457 kts | 172° |
| 2026-04-23 18:17 | 31.07349 | -69.26625 | 36132 ft | 457 kts | 172° |
| 2026-04-23 18:17 | 31.01119 | -69.25137 | 36130 ft | 457 kts | 172° |
| 2026-04-23 18:18 | 30.94874 | -69.23646 | 36125 ft | 457 kts | 172° |
| 2026-04-23 18:18 | 30.88650 | -69.22161 | 36138 ft | 456 kts | 173° |
| 2026-04-23 18:19 | 30.82420 | -69.20679 | 36128 ft | 456 kts | 173° |
| 2026-04-23 18:19 | 30.76222 | -69.19206 | 36139 ft | 456 kts | 173° |
| 2026-04-23 18:20 | 30.70002 | -69.17729 | 36132 ft | 456 kts | 173° |
| 2026-04-23 18:20 | 30.63808 | -69.16260 | 36138 ft | 455 kts | 173° |
| 2026-04-23 18:21 | 30.57598 | -69.14790 | 36135 ft | 455 kts | 173° |
| 2026-04-23 18:21 | 30.51374 | -69.13320 | 36137 ft | 455 kts | 173° |
| 2026-04-23 18:22 | 30.45192 | -69.11861 | 36140 ft | 455 kts | 173° |
| 2026-04-23 18:22 | 30.38988 | -69.10398 | 36143 ft | 455 kts | 173° |
| 2026-04-23 18:23 | 30.29670 | -69.08205 | 36150 ft | 454 kts | 173° |
| 2026-04-23 18:24 | 30.20391 | -69.06025 | 36145 ft | 454 kts | 173° |
| 2026-04-23 18:25 | 30.11129 | -69.03853 | 36153 ft | 454 kts | 173° |
| 2026-04-23 18:25 | 30.04947 | -69.02404 | 36138 ft | 453 kts | 174° |
| 2026-04-23 18:26 | 29.98756 | -69.00957 | 36151 ft | 453 kts | 174° |
| 2026-04-23 18:26 | 29.92598 | -68.99519 | 36152 ft | 453 kts | 174° |
| 2026-04-23 18:27 | 29.86446 | -68.98083 | 36151 ft | 452 kts | 174° |
| 2026-04-23 18:27 | 29.80281 | -68.96648 | 36149 ft | 452 kts | 174° |
| 2026-04-23 18:28 | 29.74104 | -68.95212 | 36155 ft | 452 kts | 174° |
| 2026-04-23 18:28 | 29.67930 | -68.93778 | 36152 ft | 451 kts | 174° |
| 2026-04-23 18:29 | 29.61777 | -68.92349 | 36153 ft | 451 kts | 174° |
| 2026-04-23 18:29 | 29.55674 | -68.90932 | 36152 ft | 450 kts | 175° |
| 2026-04-23 18:30 | 29.49496 | -68.89505 | 36150 ft | 450 kts | 175° |
| 2026-04-23 18:30 | 29.43382 | -68.88088 | 36157 ft | 449 kts | 175° |
| 2026-04-23 18:31 | 29.37254 | -68.86676 | 36151 ft | 449 kts | 175° |
| 2026-04-23 18:31 | 29.31138 | -68.85265 | 36157 ft | 448 kts | 175° |
| 2026-04-23 18:32 | 29.25029 | -68.83859 | 36160 ft | 448 kts | 175° |
| 2026-04-23 18:32 | 29.18907 | -68.82451 | 36142 ft | 448 kts | 176° |
| 2026-04-23 18:33 | 29.12804 | -68.81047 | 36147 ft | 447 kts | 176° |
| 2026-04-23 18:33 | 29.06711 | -68.79650 | 36153 ft | 447 kts | 176° |
| 2026-04-23 18:34 | 29.00630 | -68.78255 | 36148 ft | 446 kts | 176° |
| 2026-04-23 18:34 | 28.94503 | -68.76852 | 36152 ft | 446 kts | 176° |
| 2026-04-23 18:35 | 28.88453 | -68.75470 | 36149 ft | 445 kts | 176° |
| 2026-04-23 18:35 | 28.82363 | -68.74080 | 36147 ft | 445 kts | 176° |
| 2026-04-23 18:36 | 28.76284 | -68.72693 | 36147 ft | 445 kts | 176° |
| 2026-04-23 18:36 | 28.70232 | -68.71312 | 36143 ft | 444 kts | 177° |
| 2026-04-23 18:37 | 28.64168 | -68.69930 | 36139 ft | 443 kts | 177° |
| 2026-04-23 18:37 | 28.58152 | -68.68564 | 36138 ft | 443 kts | 177° |
| 2026-04-23 18:38 | 28.52095 | -68.67188 | 36133 ft | 442 kts | 177° |
| 2026-04-23 18:38 | 28.46044 | -68.65816 | 36133 ft | 442 kts | 178° |
| 2026-04-23 18:39 | 28.40015 | -68.64451 | 36131 ft | 441 kts | 178° |
| 2026-04-23 18:39 | 28.34032 | -68.63099 | 36132 ft | 441 kts | 178° |
| 2026-04-23 18:40 | 28.28011 | -68.61737 | 36129 ft | 440 kts | 178° |
| 2026-04-23 18:40 | 28.21989 | -68.60377 | 36126 ft | 440 kts | 178° |
| 2026-04-23 18:41 | 28.16000 | -68.59028 | 36124 ft | 440 kts | 179° |
| 2026-04-23 18:41 | 28.09981 | -68.57673 | 36122 ft | 439 kts | 179° |
| 2026-04-23 18:42 | 28.04002 | -68.56329 | 36119 ft | 439 kts | 179° |
| 2026-04-23 18:42 | 27.97981 | -68.54977 | 36117 ft | 439 kts | 179° |
| 2026-04-23 18:43 | 27.91998 | -68.53634 | 36115 ft | 439 kts | 179° |
| 2026-04-23 18:43 | 27.86009 | -68.52290 | 36115 ft | 439 kts | 179° |
| 2026-04-23 18:44 | 27.80043 | -68.50952 | 36111 ft | 437 kts | 179° |
| 2026-04-23 18:44 | 27.74067 | -68.49616 | 36113 ft | 437 kts | 179° |
| 2026-04-23 18:45 | 27.68122 | -68.48287 | 36117 ft | 437 kts | 179° |
| 2026-04-23 18:45 | 27.62126 | -68.46950 | 36116 ft | 437 kts | 180° |
| 2026-04-23 18:46 | 27.56170 | -68.45623 | 36114 ft | 436 kts | 179° |
| 2026-04-23 18:46 | 27.50234 | -68.44301 | 36112 ft | 438 kts | 180° |
| 2026-04-23 18:47 | 27.44261 | -68.42971 | 36110 ft | 435 kts | 180° |
| 2026-04-23 18:47 | 27.38324 | -68.41653 | 36114 ft | 435 kts | 180° |
| 2026-04-23 18:48 | 27.32368 | -68.40332 | 36112 ft | 435 kts | 180° |
| 2026-04-23 18:48 | 27.26412 | -68.39011 | 36113 ft | 436 kts | 180° |
| 2026-04-23 18:49 | 27.20474 | -68.37695 | 36112 ft | 436 kts | 180° |
| 2026-04-23 18:49 | 27.14545 | -68.36384 | 36109 ft | 434 kts | 180° |
| 2026-04-23 18:50 | 27.09608 | -68.35293 | 36104 ft | 435 kts | 180° |
| 2026-04-23 18:50 | 27.02687 | -68.33764 | 36099 ft | 433 kts | 181° |
| 2026-04-23 18:51 | 26.96756 | -68.32457 | 36097 ft | 433 kts | 181° |
| 2026-04-23 18:51 | 26.90857 | -68.31158 | 36100 ft | 433 kts | 181° |
| 2026-04-23 18:52 | 26.84929 | -68.29854 | 36098 ft | 432 kts | 181° |
| 2026-04-23 18:52 | 26.79065 | -68.28565 | 36097 ft | 432 kts | 181° |
| 2026-04-23 18:53 | 26.73151 | -68.27266 | 36090 ft | 432 kts | 181° |
| 2026-04-23 18:53 | 26.67243 | -68.25970 | 36094 ft | 431 kts | 181° |
| 2026-04-23 18:54 | 26.61352 | -68.24680 | 36098 ft | 430 kts | 181° |
| 2026-04-23 18:54 | 26.55496 | -68.23398 | 36092 ft | 430 kts | 181° |
| 2026-04-23 18:55 | 26.49627 | -68.22115 | 36099 ft | 431 kts | 181° |
| 2026-04-23 18:55 | 26.43736 | -68.20829 | 36094 ft | 431 kts | 182° |
| 2026-04-23 18:56 | 26.38816 | -68.19755 | 36095 ft | 431 kts | 182° |
| 2026-04-23 18:56 | 26.31965 | -68.18261 | 36092 ft | 430 kts | 182° |
| 2026-04-23 18:57 | 26.26084 | -68.16981 | 36092 ft | 430 kts | 182° |
| 2026-04-23 18:57 | 26.20212 | -68.15704 | 36090 ft | 430 kts | 182° |
| 2026-04-23 18:58 | 26.14366 | -68.14432 | 36091 ft | 428 kts | 182° |
| 2026-04-23 18:58 | 26.08521 | -68.13163 | 36091 ft | 428 kts | 182° |
| 2026-04-23 18:59 | 26.02664 | -68.11894 | 36093 ft | 428 kts | 182° |
| 2026-04-23 18:59 | 25.96848 | -68.10635 | 36092 ft | 427 kts | 182° |
| 2026-04-23 19:00 | 25.90985 | -68.09367 | 36091 ft | 427 kts | 182° |
| 2026-04-23 19:00 | 25.85162 | -68.08110 | 36091 ft | 428 kts | 182° |
| 2026-04-23 19:01 | 25.79320 | -68.06847 | 36089 ft | 428 kts | 182° |
| 2026-04-23 19:01 | 25.73463 | -68.05583 | 36089 ft | 428 kts | 182° |
| 2026-04-23 19:02 | 25.67627 | -68.04325 | 36086 ft | 427 kts | 182° |
| 2026-04-23 19:02 | 25.61788 | -68.03069 | 36088 ft | 427 kts | 182° |
| 2026-04-23 19:03 | 25.55961 | -68.01817 | 36085 ft | 428 kts | 182° |
| 2026-04-23 19:03 | 25.50098 | -68.00555 | 36082 ft | 429 kts | 182° |
| 2026-04-23 19:04 | 25.44274 | -67.99306 | 36082 ft | 428 kts | 182° |
| 2026-04-23 19:04 | 25.38425 | -67.98050 | 36080 ft | 426 kts | 182° |
| 2026-04-23 19:05 | 25.32557 | -67.96792 | 36080 ft | 427 kts | 182° |
| 2026-04-23 19:05 | 25.26751 | -67.95549 | 36080 ft | 427 kts | 182° |
| 2026-04-23 19:06 | 25.20914 | -67.94301 | 36080 ft | 426 kts | 182° |
| 2026-04-23 19:06 | 25.15066 | -67.93054 | 36074 ft | 428 kts | 182° |
| 2026-04-23 19:07 | 25.09238 | -67.91811 | 36074 ft | 427 kts | 182° |
| 2026-04-23 19:07 | 25.03398 | -67.90565 | 36076 ft | 429 kts | 182° |
| 2026-04-23 19:08 | 24.97551 | -67.89318 | 36075 ft | 426 kts | 182° |
| 2026-04-23 19:08 | 24.91694 | -67.88071 | 36070 ft | 426 kts | 182° |
| 2026-04-23 19:09 | 24.85874 | -67.86835 | 36070 ft | 426 kts | 182° |
| 2026-04-23 19:09 | 24.80058 | -67.85599 | 36070 ft | 426 kts | 182° |
| 2026-04-23 19:10 | 24.74212 | -67.84360 | 36071 ft | 426 kts | 182° |
| 2026-04-23 19:10 | 24.68404 | -67.83130 | 36064 ft | 429 kts | 182° |
| 2026-04-23 19:11 | 24.62550 | -67.81889 | 36064 ft | 427 kts | 182° |
| 2026-04-23 19:11 | 24.56710 | -67.80653 | 36064 ft | 428 kts | 182° |
| 2026-04-23 19:12 | 24.50841 | -67.79411 | 36062 ft | 427 kts | 182° |
| 2026-04-23 19:12 | 24.45035 | -67.78186 | 36063 ft | 426 kts | 182° |
| 2026-04-23 19:13 | 24.39184 | -67.76954 | 36063 ft | 426 kts | 182° |
| 2026-04-23 19:13 | 24.33336 | -67.75721 | 36060 ft | 426 kts | 182° |
| 2026-04-23 19:14 | 24.27544 | -67.74503 | 36058 ft | 426 kts | 182° |
| 2026-04-23 19:14 | 24.21679 | -67.73268 | 36057 ft | 427 kts | 182° |
| 2026-04-23 19:15 | 24.15859 | -67.72043 | 36055 ft | 427 kts | 182° |
| 2026-04-23 19:15 | 24.10005 | -67.70814 | 36055 ft | 427 kts | 182° |
| 2026-04-23 19:16 | 24.04158 | -67.69587 | 36051 ft | 426 kts | 182° |
| 2026-04-23 19:16 | 23.98330 | -67.68367 | 36052 ft | 427 kts | 182° |
| 2026-04-23 19:17 | 23.89578 | -67.66534 | 36053 ft | 427 kts | 181° |
| 2026-04-23 19:17 | 23.83760 | -67.65318 | 36054 ft | 427 kts | 181° |
| 2026-04-23 19:18 | 23.77882 | -67.64091 | 36050 ft | 427 kts | 181° |
| 2026-04-23 19:18 | 23.72058 | -67.62874 | 36049 ft | 428 kts | 181° |
| 2026-04-23 19:19 | 23.63278 | -67.61044 | 36050 ft | 427 kts | 181° |
| 2026-04-23 19:20 | 23.54484 | -67.59214 | 36049 ft | 428 kts | 181° |
| 2026-04-23 19:20 | 23.48628 | -67.57996 | 36050 ft | 428 kts | 181° |
| 2026-04-23 19:21 | 23.39856 | -67.56174 | 36048 ft | 429 kts | 181° |
| 2026-04-23 19:22 | 23.33991 | -67.54958 | 36047 ft | 429 kts | 181° |
| 2026-04-23 19:22 | 23.25177 | -67.53130 | 36049 ft | 429 kts | 181° |
| 2026-04-23 19:23 | 23.19330 | -67.51919 | 36044 ft | 429 kts | 181° |
| 2026-04-23 19:24 | 23.10512 | -67.50095 | 36046 ft | 429 kts | 181° |
| 2026-04-23 19:24 | 23.01711 | -67.48278 | 36045 ft | 429 kts | 181° |
| 2026-04-23 19:25 | 22.89940 | -67.45851 | 36040 ft | 430 kts | 180° |
| 2026-04-23 19:26 | 22.81111 | -67.44035 | 36036 ft | 430 kts | 180° |
| 2026-04-23 19:27 | 22.66394 | -67.41009 | 36032 ft | 430 kts | 180° |
| 2026-04-23 19:28 | 22.54646 | -67.38599 | 36024 ft | 431 kts | 180° |
| 2026-04-23 19:29 | 22.45785 | -67.36786 | 36023 ft | 431 kts | 180° |
| 2026-04-23 19:30 | 22.36966 | -67.34982 | 36024 ft | 431 kts | 180° |
| 2026-04-23 19:31 | 22.28125 | -67.33177 | 36020 ft | 431 kts | 180° |
| 2026-04-23 19:31 | 22.22216 | -67.31971 | 36018 ft | 431 kts | 180° |
| 2026-04-23 19:32 | 22.16326 | -67.30770 | 36020 ft | 432 kts | 180° |
| 2026-04-23 19:32 | 22.10418 | -67.29565 | 36013 ft | 431 kts | 180° |
| 2026-04-23 19:33 | 22.04498 | -67.28361 | 36016 ft | 431 kts | 180° |
| 2026-04-23 19:33 | 21.95666 | -67.26565 | 36013 ft | 431 kts | 180° |
| 2026-04-23 19:34 | 21.89737 | -67.25362 | 36013 ft | 431 kts | 180° |
| 2026-04-23 19:35 | 21.80884 | -67.23567 | 36010 ft | 432 kts | 180° |
| 2026-04-23 19:35 | 21.74974 | -67.22368 | 36006 ft | 432 kts | 180° |
| 2026-04-23 19:36 | 21.69053 | -67.21170 | 36006 ft | 432 kts | 180° |
| 2026-04-23 19:36 | 21.63157 | -67.19978 | 36010 ft | 432 kts | 179° |
| 2026-04-23 19:37 | 21.57230 | -67.18842 | 36010 ft | 431 kts | 180° |
| 2026-04-23 19:37 | 21.51284 | -67.17753 | 36007 ft | 432 kts | 180° |
| 2026-04-23 19:38 | 21.45354 | -67.16659 | 36000 ft | 432 kts | 180° |
| 2026-04-23 19:38 | 21.39414 | -67.15562 | 35998 ft | 432 kts | 180° |
| 2026-04-23 19:39 | 21.33472 | -67.14464 | 35997 ft | 432 kts | 180° |
| 2026-04-23 19:39 | 21.27540 | -67.13239 | 35996 ft | 436 kts | 176° |
| 2026-04-23 19:40 | 21.21723 | -67.11365 | 35999 ft | 441 kts | 171° |
| 2026-04-23 19:40 | 21.15892 | -67.09177 | 35997 ft | 441 kts | 170° |
| 2026-04-23 19:41 | 21.10125 | -67.07011 | 35994 ft | 441 kts | 170° |
| 2026-04-23 19:41 | 21.04307 | -67.04833 | 35992 ft | 442 kts | 170° |
| 2026-04-23 19:42 | 20.98515 | -67.02667 | 35993 ft | 442 kts | 170° |
| 2026-04-23 19:42 | 20.92694 | -67.00492 | 35992 ft | 442 kts | 170° |
| 2026-04-23 19:43 | 20.86904 | -66.98331 | 35989 ft | 442 kts | 170° |
| 2026-04-23 19:43 | 20.81101 | -66.96167 | 35990 ft | 442 kts | 170° |
| 2026-04-23 19:44 | 20.75228 | -66.94415 | 35989 ft | 432 kts | 179° |
| 2026-04-23 19:44 | 20.69293 | -66.93295 | 35987 ft | 433 kts | 179° |
| 2026-04-23 19:45 | 20.63352 | -66.92176 | 35982 ft | 434 kts | 179° |
| 2026-04-23 19:45 | 20.57424 | -66.91033 | 35983 ft | 434 kts | 179° |
| 2026-04-23 19:46 | 20.51476 | -66.89879 | 35983 ft | 433 kts | 179° |
| 2026-04-23 19:46 | 20.45532 | -66.88725 | 35976 ft | 434 kts | 179° |
| 2026-04-23 19:47 | 20.39575 | -66.87568 | 35979 ft | 434 kts | 179° |
| 2026-04-23 19:47 | 20.33620 | -66.86410 | 35981 ft | 434 kts | 179° |
| 2026-04-23 19:48 | 20.27691 | -66.85262 | 35983 ft | 434 kts | 179° |
| 2026-04-23 19:48 | 20.21732 | -66.84110 | 35114 ft | 441 kts | 179° |
| 2026-04-23 19:48 | 20.18671 | -66.83522 | 34197 ft | 445 kts | 178° |
| 2026-04-23 19:49 | 20.15626 | -66.82933 | 33400 ft | 446 kts | 178° |
| 2026-04-23 19:49 | 20.12572 | -66.82340 | 32685 ft | 446 kts | 178° |
| 2026-04-23 19:49 | 20.09526 | -66.81750 | 31998 ft | 447 kts | 178° |
| 2026-04-23 19:49 | 20.06451 | -66.81157 | 31280 ft | 448 kts | 178° |
| 2026-04-23 19:50 | 20.03399 | -66.80550 | 30561 ft | 451 kts | 175° |
| 2026-04-23 19:50 | 20.00325 | -66.79630 | 29831 ft | 460 kts | 167° |
| 2026-04-23 19:50 | 19.97417 | -66.78326 | 29088 ft | 468 kts | 160° |
| 2026-04-23 19:50 | 19.94614 | -66.76601 | 28341 ft | 475 kts | 153° |
| 2026-04-23 19:51 | 19.91882 | -66.74679 | 27581 ft | 477 kts | 151° |
| 2026-04-23 19:51 | 19.89128 | -66.72688 | 26898 ft | 475 kts | 150° |
| 2026-04-23 19:51 | 19.86400 | -66.70708 | 26378 ft | 470 kts | 150° |
| 2026-04-23 19:51 | 19.83726 | -66.68776 | 25844 ft | 465 kts | 150° |
| 2026-04-23 19:52 | 19.81053 | -66.66856 | 25310 ft | 460 kts | 150° |
| 2026-04-23 19:52 | 19.78430 | -66.64978 | 24783 ft | 455 kts | 150° |
| 2026-04-23 19:52 | 19.75804 | -66.63104 | 24257 ft | 450 kts | 149° |
| 2026-04-23 19:52 | 19.73251 | -66.61283 | 23984 ft | 441 kts | 149° |
| 2026-04-23 19:53 | 19.70714 | -66.59473 | 23966 ft | 440 kts | 149° |
| 2026-04-23 19:53 | 19.68171 | -66.57662 | 23965 ft | 441 kts | 149° |
| 2026-04-23 19:53 | 19.65600 | -66.55832 | 23961 ft | 440 kts | 149° |
| 2026-04-23 19:53 | 19.63076 | -66.54037 | 23964 ft | 441 kts | 149° |
| 2026-04-23 19:54 | 19.60483 | -66.52248 | 23955 ft | 439 kts | 153° |
| 2026-04-23 19:54 | 19.57834 | -66.50748 | 23698 ft | 432 kts | 159° |
| 2026-04-23 19:54 | 19.55034 | -66.49533 | 22855 ft | 434 kts | 163° |
| 2026-04-23 19:54 | 19.52194 | -66.48486 | 21967 ft | 438 kts | 164° |
| 2026-04-23 19:55 | 19.49285 | -66.47444 | 21310 ft | 436 kts | 164° |
| 2026-04-23 19:55 | 19.46443 | -66.46423 | 20748 ft | 432 kts | 164° |
| 2026-04-23 19:55 | 19.43629 | -66.45406 | 20180 ft | 428 kts | 164° |
| 2026-04-23 19:55 | 19.40820 | -66.44385 | 19603 ft | 424 kts | 163° |
| 2026-04-23 19:56 | 19.38025 | -66.43368 | 19034 ft | 420 kts | 163° |
| 2026-04-23 19:56 | 19.35290 | -66.42369 | 18459 ft | 416 kts | 163° |
| 2026-04-23 19:56 | 19.32546 | -66.41369 | 17884 ft | 413 kts | 162° |
| 2026-04-23 19:56 | 19.29860 | -66.40388 | 17332 ft | 409 kts | 162° |
| 2026-04-23 19:57 | 19.27195 | -66.39413 | 16780 ft | 406 kts | 162° |
| 2026-04-23 19:57 | 19.24537 | -66.38441 | 16220 ft | 403 kts | 162° |
| 2026-04-23 19:57 | 19.21880 | -66.37470 | 15653 ft | 400 kts | 162° |
| 2026-04-23 19:57 | 19.19250 | -66.36510 | 15093 ft | 397 kts | 162° |
| 2026-04-23 19:58 | 19.16670 | -66.35569 | 14540 ft | 393 kts | 162° |
| 2026-04-23 19:58 | 19.14082 | -66.34625 | 13983 ft | 391 kts | 162° |
| 2026-04-23 19:58 | 19.11538 | -66.33672 | 13437 ft | 388 kts | 160° |
| 2026-04-23 19:58 | 19.09044 | -66.32554 | 12875 ft | 385 kts | 157° |
| 2026-04-23 19:59 | 19.06626 | -66.31406 | 12348 ft | 382 kts | 157° |
| 2026-04-23 19:59 | 19.04206 | -66.30247 | 11822 ft | 378 kts | 156° |
| 2026-04-23 19:59 | 19.01821 | -66.29104 | 11292 ft | 375 kts | 156° |
| 2026-04-23 19:59 | 18.99489 | -66.27988 | 10955 ft | 365 kts | 156° |
| 2026-04-23 20:00 | 18.97198 | -66.26892 | 10959 ft | 354 kts | 156° |
| 2026-04-23 20:00 | 18.94974 | -66.25830 | 10692 ft | 345 kts | 156° |
| 2026-04-23 20:00 | 18.92817 | -66.24802 | 10350 ft | 339 kts | 156° |
| 2026-04-23 20:00 | 18.90675 | -66.23780 | 10068 ft | 331 kts | 156° |
| 2026-04-23 20:01 | 18.88611 | -66.22796 | 9899 ft | 319 kts | 156° |
| 2026-04-23 20:01 | 18.86614 | -66.21844 | 9626 ft | 312 kts | 156° |
| 2026-04-23 20:01 | 18.84646 | -66.20906 | 9340 ft | 306 kts | 155° |
| 2026-04-23 20:01 | 18.82737 | -66.19997 | 9041 ft | 301 kts | 155° |
| 2026-04-23 20:02 | 18.80826 | -66.19087 | 8729 ft | 297 kts | 156° |
| 2026-04-23 20:02 | 18.78964 | -66.18200 | 8413 ft | 292 kts | 156° |
| 2026-04-23 20:02 | 18.77111 | -66.17319 | 8108 ft | 287 kts | 156° |
| 2026-04-23 20:02 | 18.75269 | -66.16600 | 7797 ft | 283 kts | 168° |
| 2026-04-23 20:03 | 18.73306 | -66.16438 | 7495 ft | 278 kts | 184° |
| 2026-04-23 20:03 | 18.71396 | -66.16634 | 7206 ft | 274 kts | 186° |
| 2026-04-23 20:03 | 18.69519 | -66.16877 | 6918 ft | 269 kts | 187° |
| 2026-04-23 20:03 | 18.67683 | -66.17110 | 6632 ft | 265 kts | 186° |
| 2026-04-23 20:04 | 18.65844 | -66.17333 | 6340 ft | 261 kts | 186° |
| 2026-04-23 20:04 | 18.64057 | -66.17542 | 6077 ft | 257 kts | 185° |
| 2026-04-23 20:04 | 18.62291 | -66.17748 | 5819 ft | 253 kts | 185° |
| 2026-04-23 20:04 | 18.60543 | -66.17950 | 5561 ft | 249 kts | 185° |
| 2026-04-23 20:05 | 18.58843 | -66.18146 | 5312 ft | 245 kts | 185° |
| 2026-04-23 20:05 | 18.57143 | -66.18342 | 5040 ft | 242 kts | 185° |
| 2026-04-23 20:05 | 18.55467 | -66.18535 | 4735 ft | 242 kts | 185° |
| 2026-04-23 20:05 | 18.53790 | -66.18729 | 4433 ft | 241 kts | 185° |
| 2026-04-23 20:06 | 18.52139 | -66.18919 | 4130 ft | 240 kts | 185° |
| 2026-04-23 20:06 | 18.50465 | -66.19111 | 3827 ft | 239 kts | 185° |
| 2026-04-23 20:06 | 18.48813 | -66.19300 | 3526 ft | 239 kts | 185° |
| 2026-04-23 20:06 | 18.47177 | -66.19489 | 3316 ft | 234 kts | 185° |
| 2026-04-23 20:07 | 18.45561 | -66.19627 | 3144 ft | 226 kts | 174° |
| 2026-04-23 20:07 | 18.44128 | -66.19115 | 2988 ft | 212 kts | 137° |
| 2026-04-23 20:07 | 18.43218 | -66.17994 | 2988 ft | 199 kts | 120° |
| 2026-04-23 20:07 | 18.42603 | -66.16693 | 2974 ft | 197 kts | 97° |
| 2026-04-23 20:08 | 18.42710 | -66.15281 | 2633 ft | 203 kts | 70° |
| 2026-04-23 20:08 | 18.43300 | -66.13883 | 2098 ft | 216 kts | 63° |
| 2026-04-23 20:08 | 18.43815 | -66.12376 | 1547 ft | 228 kts | 87° |
| 2026-04-23 20:08 | 18.43666 | -66.10715 | 1210 ft | 228 kts | 97° |
| 2026-04-23 20:09 | 18.43464 | -66.09060 | 994 ft | 222 kts | 94° |
| 2026-04-23 20:09 | 18.43369 | -66.07577 | 1034 ft | 188 kts | 90° |
| 2026-04-23 20:09 | 18.43361 | -66.06293 | 926 ft | 167 kts | 88° |
| 2026-04-23 20:09 | 18.43368 | -66.05112 | 707 ft | 152 kts | 88° |
| 2026-04-23 20:10 | 18.43366 | -66.04057 | 502 ft | 138 kts | 88° |
| 2026-04-23 20:10 | 18.43356 | -66.03090 | 289 ft | 127 kts | 87° |
| 2026-04-23 20:10 | 18.43352 | -66.02165 | 177 ft | 126 kts | 86° |
| 2026-04-23 20:10 | 18.43344 | -66.01235 | 32 ft | 125 kts | 84° |
| 2026-04-23 20:11 | 18.43357 | -66.00440 | 17 ft | 86 kts | 90° |
| 2026-04-23 20:11 | 18.43367 | -65.99976 | 17 ft | 43 kts | 72° |
| 2026-04-23 20:11 | 18.43495 | -65.99819 | 17 ft | 19 kts | 9° |
| 2026-04-23 20:11 | 18.43561 | -65.99904 | 17 ft | 17 kts | 273° |
| 2026-04-23 20:12 | 18.43569 | -66.00012 | 22 ft | 11 kts | 298° |
| 2026-04-23 20:12 | 18.43623 | -66.00073 | 23 ft | 8 kts | 317° |
| 2026-04-23 20:12 | 18.43637 | -66.00088 | 23 ft | 0 kts | 316° |